Date,TemperatureHighF,TemperatureAvgF,TemperatureLowF,DewpointHighF,DewpointAvgF,DewpointLowF,HumidityHigh,HumidityAvg,HumidityLow,PressureMaxIn,PressureMinIn,WindSpeedMaxMPH,WindSpeedAvgMPH,GustSpeedMaxMPH,PrecipitationSumIn
2013-1-1,37.4,32.3,22.1,28.0,20.4,9.0,75,62,48,29.91,29.74,8,2,20,0.01
2013-1-2,32.3,21.8,12.5,15.0,10.3,5.0,79,62,48,30.09,29.89,7,1,14,0.00
2013-1-3,26.6,16.1,6.7,13.0,1.3,-4.0,80,54,29,30.14,30.00,5,1,10,0.00
2013-1-4,39.5,28.9,14.3,25.0,19.9,11.0,87,70,49,30.00,29.82,16,3,18,0.02
2013-1-5,43.7,32.0,20.9,25.0,21.5,19.0,92,67,42,30.25,29.86,8,2,15,0.04
2013-1-6,43.4,31.5,22.0,33.0,27.6,20.0,96,86,64,30.22,29.93,10,1,14,0.01
2013-1-7,41.1,29.8,21.1,31.0,24.5,20.0,97,83,48,30.40,29.96,5,1,11,0.00
2013-1-8,47.3,33.5,17.4,32.0,27.2,16.0,98,80,53,30.37,30.27,19,2,21,0.01
2013-1-9,44.9,34.8,22.2,40.0,30.9,21.0,97,86,68,30.39,30.01,8,2,14,0.00
2013-1-10,47.6,40.5,29.4,34.0,25.5,23.0,77,56,40,30.52,30.06,9,2,23,0.00
2013-1-11,39.9,32.8,22.9,37.0,28.7,21.0,96,85,72,30.51,30.20,2,0,5,0.19
2013-1-12,44.9,41.7,38.0,44.0,41.1,37.0,98,97,96,30.21,30.11,1,0,4,0.07
2013-1-13,51.4,46.4,42.0,50.0,46.0,42.0,99,98,95,30.15,30.01,7,2,13,0.01
2013-1-14,62.6,52.0,40.1,54.0,45.7,32.0,99,81,48,30.24,29.92,7,2,15,0.04
2013-1-15,41.7,37.2,33.7,37.0,32.3,29.0,97,83,64,30.29,30.20,2,0,4,0.09
2013-1-16,35.8,33.3,32.0,33.0,31.8,29.0,98,94,75,30.23,29.78,3,0,4,0.27
2013-1-17,44.0,36.2,30.9,33.0,29.1,21.0,97,77,53,30.06,29.84,7,1,16,0.37
2013-1-18,32.0,23.5,14.4,21.0,4.4,-4.0,79,46,29,30.46,30.02,8,2,16,0.00
2013-1-19,48.1,38.1,16.2,36.0,27.6,10.0,78,67,49,30.39,29.91,15,5,28,0.03
2013-1-20,55.2,44.2,29.3,38.0,28.9,10.0,78,57,35,29.92,29.56,16,5,29,0.00
2013-1-21,29.0,25.7,20.5,23.0,12.6,6.0,93,60,41,30.10,29.77,7,1,12,0.00
2013-1-22,24.8,21.3,12.6,23.0,8.8,-3.0,94,62,33,30.07,29.74,9,2,17,0.00
2013-1-23,16.5,11.4,6.6,3.0,-4.8,-9.0,67,49,37,30.15,30.06,13,2,18,0.00
2013-1-24,20.7,11.3,2.7,-3.0,-7.0,-8.0,62,45,28,30.21,30.05,7,2,19,0.00
2013-1-25,25.7,16.7,7.4,13.0,-3.5,-9.0,81,42,27,30.30,30.04,7,1,11,0.00
2013-1-26,26.1,17.5,8.5,14.0,5.1,-6.0,92,62,34,30.23,29.99,8,2,14,0.00
2013-1-27,31.3,20.2,11.8,7.0,3.3,1.0,66,50,30,30.46,30.23,6,2,12,0.00
2013-1-28,32.0,23.2,11.7,29.0,15.9,4.0,96,76,38,30.44,29.99,5,1,10,0.03
2013-1-29,34.1,31.7,28.8,33.0,30.7,28.0,98,96,93,30.18,29.98,2,0,3,0.11
2013-1-30,58.3,49.9,33.7,57.0,48.7,33.0,98,95,90,30.15,29.50,20,6,30,0.15
2013-1-31,62.1,49.6,31.6,59.0,38.1,14.0,97,68,35,29.60,29.02,28,9,40,0.78
2013-2-1,32.3,28.7,22.4,15.0,10.2,6.0,56,46,35,30.09,29.60,21,4,21,0.00
2013-2-2,29.7,24.6,16.5,17.0,9.9,4.0,67,54,42,30.25,30.04,11,2,16,0.00
2013-2-3,30.8,25.5,19.8,23.0,20.6,15.0,93,82,64,30.05,29.72,5,1,10,0.00
2013-2-4,30.6,24.6,19.1,22.0,12.4,6.0,91,62,37,29.95,29.71,14,2,20,0.00
2013-2-5,25.8,24.0,21.9,24.0,17.0,11.0,93,75,62,30.02,29.91,4,0,5,0.00
2013-2-6,40.7,30.8,25.5,28.0,20.0,6.0,95,68,40,30.28,29.90,9,2,13,0.03
2013-2-7,31.3,24.5,16.1,15.0,7.0,4.0,75,49,31,30.52,30.29,4,1,8,0.00
2013-2-8,32.5,30.2,22.0,32.0,27.2,15.0,98,89,70,30.46,29.43,11,3,18,0.00
2013-2-9,28.3,19.0,13.0,28.0,17.1,9.0,97,92,83,30.16,29.42,0,0,0,0.00
2013-2-10,38.6,19.5,2.8,25.0,12.8,0.0,94,77,35,30.39,30.17,0,0,0,0.06
2013-2-11,46.5,32.6,10.9,46.0,31.7,9.0,99,96,92,30.35,29.59,14,1,24,0.57
2013-2-12,46.0,39.4,28.9,42.0,30.4,25.0,99,72,50,29.89,29.60,12,3,19,0.00
2013-2-13,43.9,33.5,21.4,27.0,24.7,19.0,91,72,50,29.87,29.66,6,1,9,0.00
2013-2-14,46.3,35.1,26.8,29.0,25.5,20.0,96,72,37,30.00,29.69,7,1,10,0.08
2013-2-15,48.7,36.4,22.3,39.0,31.8,21.0,98,84,58,30.02,29.92,15,3,18,0.00
2013-2-16,35.7,33.2,30.9,33.0,31.3,24.0,98,93,76,29.94,29.64,6,1,11,0.04
2013-2-17,31.2,22.8,17.5,25.0,13.1,2.0,93,69,38,29.67,29.36,13,4,31,0.00
2013-2-18,32.2,23.0,14.9,5.0,1.6,0.0,55,41,25,30.16,29.68,16,4,23,0.00
2013-2-19,48.1,37.2,20.5,44.0,28.0,3.0,97,71,41,30.17,29.58,11,2,18,0.59
2013-2-20,43.1,33.5,26.0,42.0,21.5,10.0,96,64,41,29.79,29.54,12,3,27,0.00
2013-2-21,35.1,28.5,25.1,17.0,14.6,13.0,67,57,42,30.15,29.78,13,3,18,0.00
2013-2-22,37.3,31.2,26.1,26.0,22.5,17.0,83,70,61,30.35,30.16,8,2,12,0.00
2013-2-23,39.6,34.3,30.6,35.0,29.8,26.0,97,84,71,30.32,29.86,7,1,9,0.39
2013-2-24,40.0,36.0,31.0,39.0,35.1,30.0,97,96,93,29.86,29.64,7,2,16,0.71
2013-2-25,41.4,34.4,28.1,32.0,30.1,27.0,97,85,63,30.24,29.87,6,1,9,0.11
2013-2-26,46.7,36.7,25.8,33.0,28.9,25.0,97,75,45,30.32,30.12,7,1,10,0.00
2013-2-27,43.6,41.2,36.8,42.0,40.0,33.0,98,95,85,30.12,29.55,11,3,17,1.40
2013-2-28,46.7,39.1,34.8,40.0,36.7,34.0,98,91,76,29.64,29.50,4,0,5,0.00
2013-3-1,43.2,38.3,32.7,36.0,31.5,28.0,97,78,59,29.66,29.51,5,1,11,0.00
2013-3-2,42.7,38.1,32.7,30.0,28.1,26.0,79,68,56,29.67,29.61,5,1,8,0.00
2013-3-3,43.0,36.8,31.8,31.0,28.3,26.0,92,72,55,29.63,29.54,5,1,9,0.00
2013-3-4,40.9,35.0,28.8,29.0,24.5,22.0,90,67,52,29.71,29.57,8,2,18,0.00
2013-3-5,44.1,36.6,29.6,33.0,28.4,23.0,95,73,60,30.04,29.72,10,2,12,0.00
2013-3-6,40.5,36.4,29.2,36.0,33.7,28.0,97,90,74,30.06,29.97,17,5,27,0.14
2013-3-7,35.5,32.9,31.5,34.0,32.0,31.0,98,97,90,29.97,29.91,18,5,25,0.63
2013-3-8,38.9,33.2,30.7,34.0,31.2,28.0,98,93,68,30.09,29.88,7,1,19,0.27
2013-3-9,42.8,35.6,26.3,31.0,28.5,26.0,97,76,60,30.32,30.08,10,3,17,0.32
2013-3-10,45.8,35.6,25.6,33.0,30.7,25.0,98,84,61,30.39,30.32,6,1,9,0.00
2013-3-11,50.0,41.1,33.7,42.0,37.5,32.0,94,87,71,30.32,30.15,13,2,18,0.00
2013-3-12,56.7,50.1,40.1,54.0,48.6,39.0,98,94,83,30.16,29.73,16,3,24,0.86
2013-3-13,52.5,45.4,30.2,52.0,34.9,21.0,98,70,35,29.78,29.68,7,2,14,0.02
2013-3-14,36.3,30.8,24.1,26.0,17.1,6.0,91,59,41,29.84,29.71,12,3,18,0.00
2013-3-15,42.4,30.8,20.7,28.0,15.0,7.0,78,54,26,29.87,29.64,14,3,15,0.00
2013-3-16,41.4,34.6,28.0,28.0,18.2,9.0,78,54,26,29.85,29.68,5,1,11,0.00
2013-3-17,39.4,30.9,22.8,23.0,14.4,4.0,87,54,26,30.29,29.85,7,1,15,0.00
2013-3-18,39.4,29.1,19.0,26.0,11.9,1.0,81,50,32,30.45,30.23,7,1,9,0.00
2013-3-19,38.8,34.2,29.2,38.0,33.0,27.0,97,95,91,30.19,29.53,13,3,17,0.97
2013-3-20,41.2,32.9,25.6,28.0,21.5,18.0,92,65,41,29.81,29.67,10,3,22,0.00
2013-3-21,36.7,30.4,23.4,29.0,25.4,22.0,96,83,57,29.82,29.59,6,1,10,0.00
2013-3-22,41.1,33.9,27.4,29.0,21.6,17.0,96,63,39,29.75,29.59,11,2,14,0.09
2013-3-23,44.2,36.3,29.0,25.0,20.7,18.0,76,55,36,29.78,29.64,18,3,24,0.00
2013-3-24,49.3,37.5,29.3,28.0,23.6,20.0,85,59,36,29.82,29.71,6,1,16,0.00
2013-3-25,45.8,36.9,27.6,35.0,29.5,26.0,94,76,48,29.75,29.48,13,3,21,0.01
2013-3-26,49.2,39.7,32.3,33.0,28.2,23.0,95,67,39,29.77,29.48,7,2,16,0.04
2013-3-27,53.0,41.2,25.1,32.0,24.8,21.0,87,56,33,29.85,29.73,7,1,12,0.00
2013-3-28,47.7,42.1,36.7,36.0,33.3,28.0,94,73,48,30.01,29.84,5,1,11,0.01
2013-3-29,56.6,45.0,27.8,37.0,32.4,27.0,96,65,34,30.03,29.95,5,1,12,0.01
2013-3-30,57.9,46.9,33.1,34.0,27.9,16.0,90,53,20,30.09,29.99,6,1,12,0.00
2013-3-31,57.8,43.4,25.0,44.0,30.3,24.0,97,66,29,30.12,29.73,17,3,24,0.11
2013-4-1,57.1,47.7,35.4,47.0,39.8,14.0,97,76,42,29.80,29.53,19,4,25,0.19
2013-4-2,42.8,34.7,28.8,19.0,14.3,9.0,60,44,26,29.96,29.80,16,3,23,0.00
2013-4-3,45.9,37.0,30.5,17.0,14.1,12.0,54,40,25,30.16,29.94,18,4,24,0.00
2013-4-4,51.6,39.2,28.3,33.0,21.4,15.0,80,51,27,30.30,30.07,13,4,18,0.00
2013-4-5,61.3,46.7,38.4,39.0,31.1,21.0,81,59,24,30.07,29.62,10,3,19,0.00
2013-4-6,48.7,38.9,28.6,26.0,15.6,4.0,81,42,17,30.32,29.87,7,2,22,0.00
2013-4-7,52.0,42.1,24.0,43.0,32.0,19.0,94,70,29,30.32,30.03,19,6,29,0.00
2013-4-8,68.3,54.4,44.6,46.0,42.8,39.0,95,68,35,30.09,29.96,6,2,14,0.00
2013-4-9,75.2,56.0,46.9,56.0,45.8,39.0,95,72,32,30.08,29.83,10,2,17,0.00
2013-4-10,66.1,52.3,44.5,50.0,45.8,43.0,96,80,55,29.99,29.85,7,2,12,0.30
2013-4-11,53.8,48.0,44.7,46.0,41.9,33.0,97,81,62,30.12,29.80,12,2,12,0.02
2013-4-12,44.6,40.9,38.0,39.0,35.7,30.0,96,82,63,30.14,29.73,11,4,21,0.51
2013-4-13,55.8,44.1,37.6,41.0,37.9,35.0,96,81,46,29.93,29.70,10,2,16,0.02
2013-4-14,54.2,45.3,36.5,41.0,33.6,26.0,97,68,39,30.20,29.92,8,2,14,0.00
2013-4-15,57.0,44.5,29.4,37.0,32.9,27.0,92,67,38,30.40,30.20,10,2,15,0.00
2013-4-16,60.0,48.6,32.8,50.0,41.6,32.0,98,79,54,30.40,30.11,13,5,24,0.00
2013-4-17,68.6,57.5,42.4,53.0,43.6,31.0,93,65,25,30.32,30.07,11,2,18,0.00
2013-4-18,63.1,50.2,34.7,48.0,36.8,28.0,98,66,32,30.41,30.15,10,3,18,0.00
2013-4-19,68.9,60.8,52.8,63.0,58.5,48.0,98,92,80,30.15,29.71,17,6,25,0.12
2013-4-20,61.9,54.3,46.4,61.0,44.0,29.0,97,71,41,30.20,29.64,18,4,28,0.64
2013-4-21,54.5,43.0,32.5,30.0,24.5,21.0,83,50,28,30.66,30.22,10,2,13,0.00
2013-4-22,50.2,41.3,28.9,36.0,31.7,27.0,97,71,42,30.72,30.56,11,3,17,0.00
2013-4-23,43.2,41.7,39.3,42.0,39.6,33.0,97,92,77,30.56,30.07,10,3,16,0.12
2013-4-24,68.8,51.6,42.5,52.0,45.5,41.0,96,82,51,30.05,29.83,15,4,19,0.00
2013-4-25,65.5,54.3,40.6,51.0,40.5,26.0,96,66,24,30.24,29.87,11,3,18,0.09
2013-4-26,63.6,49.0,34.0,42.0,38.5,31.0,92,70,42,30.41,30.25,9,2,11,0.00
2013-4-27,63.9,49.5,34.4,44.0,36.3,31.0,98,66,34,30.41,30.30,9,1,13,0.00
2013-4-28,66.9,51.7,34.6,43.0,35.7,28.0,97,60,27,30.34,30.24,9,2,15,0.00
2013-4-29,66.3,52.8,40.4,48.0,36.6,23.0,98,62,22,30.28,30.21,11,2,14,0.00
2013-4-30,70.7,52.4,33.8,42.0,31.9,23.0,97,55,17,30.36,30.25,5,1,9,0.00
2013-5-1,67.4,52.1,33.4,44.0,37.5,32.0,96,63,31,30.46,30.36,7,1,13,0.00
2013-5-2,76.6,54.4,37.1,49.0,41.5,36.0,98,68,27,30.46,30.33,11,2,15,0.00
2013-5-3,57.9,48.5,40.3,46.0,41.8,38.0,94,78,62,30.48,30.36,13,2,16,0.00
2013-5-4,57.5,46.4,34.8,45.0,38.3,34.0,98,76,46,30.36,30.29,14,2,14,0.00
2013-5-5,60.5,46.6,30.7,44.0,38.8,30.0,98,77,51,30.31,30.23,7,1,13,0.00
2013-5-6,71.9,53.8,38.2,52.0,46.3,37.0,97,79,45,30.29,30.14,8,1,15,0.00
2013-5-7,77.3,61.1,45.2,61.0,53.4,45.0,98,78,54,30.18,30.10,10,2,15,0.00
2013-5-8,73.5,62.7,51.1,63.0,58.5,50.0,98,87,66,30.18,30.03,8,1,12,0.53
2013-5-9,70.8,61.7,56.3,63.0,59.6,56.0,98,93,73,30.04,29.86,6,0,9,0.25
2013-5-10,79.9,65.7,55.0,60.0,56.4,54.0,98,75,42,29.95,29.88,7,2,13,0.00
2013-5-11,68.4,61.5,57.0,62.0,58.8,55.0,98,91,75,29.93,29.70,16,3,20,0.19
2013-5-12,70.9,60.6,46.9,61.0,54.2,37.0,99,81,52,29.82,29.57,8,2,15,0.05
2013-5-13,60.2,50.1,36.4,39.0,33.3,29.0,92,56,34,30.01,29.82,8,2,13,0.00
2013-5-14,58.4,49.6,35.9,36.0,32.2,28.0,88,54,34,30.04,29.96,7,1,10,0.00
2013-5-15,62.6,50.2,32.0,54.0,40.8,30.0,95,73,37,30.05,29.68,11,3,23,0.01
2013-5-16,81.2,64.7,47.7,53.0,48.8,38.0,98,63,21,29.78,29.64,10,2,18,0.00
2013-5-17,69.6,57.6,44.0,49.0,44.4,40.0,93,65,37,30.21,29.79,7,1,12,0.00
2013-5-18,71.9,57.3,38.7,51.0,44.9,38.0,97,68,32,30.30,30.21,10,1,14,0.00
2013-5-19,70.0,57.6,43.9,55.0,50.1,43.0,98,78,48,30.34,30.22,10,2,15,0.10
2013-5-20,81.9,67.3,55.5,68.0,62.4,55.0,98,85,58,30.21,29.91,7,2,13,0.06
2013-5-21,85.6,65.4,52.3,70.0,61.4,52.0,99,88,58,29.98,29.83,8,2,13,0.24
2013-5-22,72.5,60.1,51.1,66.0,57.4,50.0,98,91,78,30.00,29.87,6,1,10,0.03
2013-5-23,73.9,65.7,60.0,68.0,63.9,60.0,98,94,81,29.91,29.83,14,5,22,0.06
2013-5-24,69.0,62.8,51.0,65.0,61.3,50.0,98,95,84,29.83,29.66,7,2,15,0.87
2013-5-25,53.0,49.1,41.3,52.0,47.9,40.0,98,95,91,29.77,29.68,6,1,10,0.45
2013-5-26,59.5,49.5,40.0,42.0,39.8,38.0,95,71,45,30.10,29.73,11,2,17,0.02
2013-5-27,72.8,57.9,40.8,48.0,40.7,35.0,94,59,27,30.16,30.06,6,2,18,0.00
2013-5-28,75.4,59.9,40.2,57.0,47.2,39.0,97,68,30,30.22,30.16,9,2,14,0.00
2013-5-29,75.2,64.2,58.0,67.0,61.0,56.0,97,90,74,30.20,29.99,6,2,11,0.95
2013-5-30,89.0,75.5,62.3,73.0,67.3,62.0,98,78,51,30.08,30.00,6,2,13,0.28
2013-5-31,91.0,78.2,61.9,71.0,66.4,61.0,98,70,45,30.08,29.95,12,2,15,0.00
2013-6-1,87.1,75.7,65.4,71.0,65.9,63.0,91,73,52,29.98,29.88,14,4,19,0.00
2013-6-2,82.3,70.9,64.9,70.0,64.9,62.0,92,82,62,29.91,29.79,19,5,20,0.00
2013-6-3,72.4,66.3,63.4,69.0,64.9,62.0,98,95,88,29.85,29.77,10,2,12,0.87
2013-6-4,72.0,62.7,50.3,63.0,48.0,45.0,96,61,41,30.07,29.80,5,1,17,0.00
2013-6-5,74.3,60.8,45.5,53.0,48.3,44.0,98,68,36,30.18,30.08,6,1,11,0.00
2013-6-6,75.0,61.8,48.9,58.0,52.5,48.0,97,74,44,30.19,30.09,8,1,12,0.00
2013-6-7,61.0,57.5,55.1,60.0,55.9,53.0,98,94,84,30.09,29.79,8,2,9,3.08
2013-6-8,77.6,64.1,55.4,66.0,59.7,55.0,98,86,65,29.99,29.56,6,2,13,1.52
2013-6-9,79.6,68.8,54.1,61.0,57.6,53.0,98,71,43,30.16,30.00,8,1,13,0.00
2013-6-10,72.2,62.1,53.7,64.0,59.1,53.0,98,90,63,30.18,29.98,3,0,7,1.07
2013-6-11,73.7,63.0,55.4,67.0,61.4,55.0,99,94,78,29.97,29.52,5,1,10,1.30
2013-6-12,71.6,63.5,55.5,58.0,55.8,54.0,98,77,55,29.80,29.55,9,2,17,0.00
2013-6-13,66.2,57.3,49.1,60.0,54.7,48.0,98,91,73,29.82,29.61,5,1,11,0.31
2013-6-14,70.9,59.3,52.7,58.0,53.6,49.0,97,83,59,29.75,29.58,10,2,19,1.52
2013-6-15,78.6,66.6,51.1,58.0,50.0,43.0,97,61,30,29.94,29.75,5,1,9,0.00
2013-6-16,76.7,65.8,52.6,63.0,56.8,51.0,97,75,44,29.94,29.73,11,2,15,0.00
2013-6-17,84.7,70.8,57.5,68.0,62.6,56.0,97,78,46,29.91,29.78,12,2,19,0.01
2013-6-18,82.6,64.6,57.2,66.0,60.1,57.0,98,87,52,29.93,29.84,8,1,16,0.19
2013-6-19,74.2,64.5,55.9,59.0,54.0,49.0,97,72,43,30.14,29.87,7,1,12,0.04
2013-6-20,78.3,65.5,48.8,57.0,53.2,48.0,98,68,36,30.26,30.14,11,2,13,0.00
2013-6-21,80.4,69.2,59.3,65.0,59.2,54.0,91,71,57,30.27,30.19,10,3,16,0.00
2013-6-22,82.2,70.3,61.7,65.0,59.2,55.0,93,69,52,30.23,30.14,10,3,15,0.00
2013-6-23,85.2,73.7,64.3,72.0,66.9,62.0,93,80,59,30.17,30.02,16,3,16,0.00
2013-6-24,92.9,79.8,69.8,75.0,71.1,67.0,97,77,47,30.04,29.86,6,2,18,0.00
2013-6-25,91.2,78.3,67.6,73.0,69.1,66.0,94,75,48,29.92,29.73,9,2,15,0.00
2013-6-26,88.4,77.2,69.1,73.0,70.4,68.0,95,81,52,29.84,29.72,6,1,12,0.04
2013-6-27,72.1,67.4,64.9,69.0,66.0,64.0,98,95,89,29.84,29.74,4,1,7,0.02
2013-6-28,76.7,70.9,65.0,73.0,69.6,65.0,99,96,87,29.73,29.52,11,3,19,1.10
2013-6-29,79.9,73.0,70.0,71.0,69.9,68.0,99,90,71,29.73,29.52,13,4,20,0.02
2013-6-30,78.8,72.9,70.0,74.0,70.2,69.0,97,91,77,29.94,29.73,11,3,15,0.34
2013-7-1,78.9,73.4,70.5,76.0,71.8,70.0,98,95,86,30.09,29.94,9,3,14,0.00
2013-7-2,81.4,75.4,71.6,75.0,72.6,71.0,98,91,80,30.18,30.08,7,4,15,0.00
2013-7-3,86.9,77.2,70.1,76.0,72.6,69.0,98,86,69,30.21,30.14,11,4,15,0.00
2013-7-4,90.4,80.7,72.0,78.0,74.6,71.0,98,83,62,30.20,30.10,10,3,13,0.00
2013-7-5,91.3,81.7,72.3,78.0,74.2,71.0,95,79,59,30.16,30.04,12,3,15,0.00
2013-7-6,91.7,81.4,73.4,77.0,73.6,72.0,94,79,54,30.08,29.96,9,2,11,0.00
2013-7-7,93.3,79.9,71.2,79.0,73.7,70.0,97,83,54,30.01,29.89,6,1,11,0.23
2013-7-8,90.3,78.1,67.8,76.0,71.9,67.0,99,83,53,30.04,29.91,8,2,10,0.01
2013-7-9,77.9,71.0,66.2,72.0,68.3,65.0,98,91,81,30.08,30.02,4,0,5,0.00
2013-7-10,83.3,74.9,69.2,76.0,72.3,68.0,98,91,74,30.05,29.80,10,3,18,0.68
2013-7-11,79.2,74.9,70.8,74.0,72.8,70.0,98,93,82,29.89,29.78,7,2,9,0.61
2013-7-12,73.3,70.0,66.0,70.0,65.8,63.0,99,87,73,30.17,29.89,9,2,13,0.00
2013-7-13,80.6,71.0,65.5,74.0,69.2,64.0,98,94,79,30.29,30.17,5,1,7,0.67
2013-7-14,89.4,79.0,71.9,77.0,73.7,71.0,99,86,59,30.29,30.18,8,1,9,0.23
2013-7-15,92.9,81.2,72.0,78.0,73.8,71.0,99,81,50,30.19,30.08,5,0,9,0.00
2013-7-16,92.9,81.1,68.4,75.0,71.4,68.0,98,74,48,30.15,30.09,3,1,7,0.00
2013-7-17,91.1,80.1,69.2,75.0,71.1,68.0,97,76,56,30.17,30.02,9,2,15,0.00
2013-7-18,92.9,83.0,74.2,79.0,74.5,71.0,90,76,57,30.01,29.94,7,1,10,0.00
2013-7-19,95.5,83.7,74.2,80.0,76.3,73.0,97,80,54,29.94,29.74,12,3,20,0.00
2013-7-20,90.9,81.5,71.4,79.0,76.0,71.0,97,84,62,29.79,29.64,11,3,17,0.23
2013-7-21,85.6,75.9,69.1,73.0,69.5,65.0,98,82,53,29.98,29.80,3,0,5,0.00
2013-7-22,86.4,75.2,66.7,72.0,69.1,66.0,98,82,54,29.99,29.86,6,1,7,0.00
2013-7-23,83.6,75.5,71.1,77.0,72.7,70.0,98,91,74,29.86,29.53,11,2,16,0.35
2013-7-24,85.6,78.3,71.7,73.0,70.3,63.0,97,78,59,29.89,29.57,6,1,11,0.00
2013-7-25,72.3,63.3,60.4,61.0,58.2,53.0,97,84,65,30.06,29.91,8,2,13,0.37
2013-7-26,70.1,64.9,61.8,67.0,63.7,61.0,98,96,89,30.01,29.91,6,1,9,0.61
2013-7-27,82.8,71.7,61.3,70.0,65.4,61.0,99,82,54,30.05,30.00,9,2,13,0.00
2013-7-28,83.6,72.8,67.3,73.0,69.5,66.0,98,90,67,30.00,29.95,3,0,7,0.03
2013-7-29,82.8,74.0,66.7,75.0,70.3,66.0,98,88,73,30.02,29.96,9,2,12,0.00
2013-7-30,82.6,72.1,59.8,69.0,61.5,58.0,97,72,46,30.08,30.02,3,0,8,0.00
2013-7-31,83.1,70.3,58.0,65.0,61.6,57.0,97,76,48,30.12,30.04,9,1,11,0.00
2013-8-1,80.7,69.1,59.9,67.0,62.5,59.0,98,81,54,30.05,29.89,10,1,13,0.06
2013-8-2,83.3,72.2,63.0,70.0,65.0,61.0,98,80,50,29.88,29.79,7,1,12,0.41
2013-8-3,76.7,71.3,67.0,67.0,65.7,64.0,95,82,69,29.87,29.79,8,2,12,0.00
2013-8-4,80.9,68.3,56.4,63.0,58.7,55.0,96,74,43,29.87,29.76,7,1,12,0.00
2013-8-5,76.1,64.0,53.6,58.0,51.9,43.0,95,69,32,30.03,29.88,7,1,11,0.00
2013-8-6,80.1,64.6,48.1,57.0,52.2,47.0,98,69,37,30.15,30.03,7,1,11,0.00
2013-8-7,79.5,66.4,54.0,65.0,55.9,50.0,98,73,39,30.18,30.13,7,1,13,0.00
2013-8-8,79.2,71.5,61.3,71.0,66.7,56.0,92,85,74,30.13,30.02,14,3,16,0.03
2013-8-9,74.8,73.7,72.2,74.0,72.0,71.0,98,94,89,30.04,29.77,13,4,19,1.81
2013-8-10,83.6,74.7,62.9,73.0,63.5,54.0,98,71,44,30.00,29.79,11,1,14,0.00
2013-8-11,79.8,67.3,52.4,61.0,55.8,51.0,98,70,43,30.07,30.00,4,1,10,0.00
2013-8-12,81.1,69.6,58.9,68.0,62.8,58.0,98,81,50,30.03,29.92,10,1,10,0.00
2013-8-13,73.6,67.0,61.1,69.0,64.8,61.0,98,93,78,29.93,29.68,4,0,6,0.02
2013-8-14,73.8,66.8,59.0,64.0,56.9,52.0,98,73,50,29.95,29.66,9,2,14,0.00
2013-8-15,77.2,64.4,50.8,59.0,53.5,48.0,97,71,41,30.11,29.96,6,1,10,0.00
2013-8-16,78.3,66.4,51.7,60.0,55.9,51.0,98,72,43,30.19,30.11,7,1,10,0.00
2013-8-17,80.4,67.6,52.6,63.0,59.0,52.0,98,77,48,30.27,30.19,4,0,7,0.00
2013-8-18,79.8,67.0,56.3,66.0,60.6,56.0,98,82,49,30.27,30.09,4,0,6,0.01
2013-8-19,81.7,69.2,56.6,65.0,60.9,56.0,97,77,48,30.09,29.95,6,1,10,0.01
2013-8-20,86.8,73.6,61.4,68.0,64.0,59.0,97,75,41,30.08,29.97,6,1,9,0.00
2013-8-21,88.1,73.9,59.7,69.0,65.1,59.0,99,77,44,30.14,30.03,6,1,9,0.00
2013-8-22,83.6,72.7,63.7,74.0,69.3,63.0,98,89,72,30.04,29.84,11,2,22,0.06
2013-8-23,77.6,70.3,58.4,70.0,62.3,57.0,98,78,52,30.09,29.81,8,1,12,0.00
2013-8-24,75.2,63.2,51.0,58.0,51.2,43.0,96,69,33,30.33,30.09,8,1,13,0.00
2013-8-25,82.4,65.1,47.2,60.0,53.7,47.0,99,71,36,30.35,30.20,8,1,12,0.00
2013-8-26,78.8,71.2,64.6,68.0,64.2,59.0,91,79,63,30.20,29.88,7,2,13,0.00
2013-8-27,79.6,71.2,63.1,72.0,68.5,62.0,98,91,70,29.88,29.82,6,1,9,0.61
2013-8-28,84.8,70.9,61.1,71.0,65.9,61.0,99,86,57,29.95,29.84,4,1,7,0.00
2013-8-29,66.1,63.8,59.6,65.0,62.6,58.0,98,95,91,30.05,29.94,8,1,11,0.01
2013-8-30,79.3,67.7,58.0,70.0,63.9,57.0,97,88,69,30.01,29.84,6,1,9,0.00
2013-8-31,79.3,73.4,68.6,73.0,70.8,68.0,97,91,81,29.84,29.80,10,3,12,0.00
2013-9-1,80.0,74.0,69.9,75.0,72.1,69.0,98,94,83,29.89,29.81,12,2,12,0.21
2013-9-2,80.1,74.0,70.9,75.0,72.7,70.0,99,96,84,29.86,29.71,8,1,13,1.45
2013-9-3,80.7,72.1,64.3,73.0,69.8,63.0,98,93,71,29.81,29.68,7,1,11,0.04
2013-9-4,80.3,68.3,58.1,62.0,59.6,57.0,96,76,48,29.92,29.80,6,1,13,0.00
2013-9-5,70.5,62.4,50.9,65.0,59.0,50.0,97,89,70,30.12,29.86,7,1,10,0.08
2013-9-6,67.5,54.8,43.1,51.0,46.4,42.0,99,77,42,30.23,30.09,3,0,7,0.00
2013-9-7,76.9,61.2,43.6,59.0,51.7,43.0,99,74,45,30.10,29.87,10,2,13,0.00
2013-9-8,77.3,66.1,49.7,65.0,55.8,42.0,94,71,43,30.08,29.74,7,2,12,0.00
2013-9-9,67.7,55.1,40.8,53.0,46.5,40.0,98,76,41,30.23,30.08,9,1,11,0.00
2013-9-10,74.0,65.4,50.9,69.0,62.1,50.0,97,89,79,30.17,30.05,14,3,16,0.00
2013-9-11,92.3,77.7,69.2,79.0,72.7,69.0,98,85,63,30.08,29.95,9,3,12,0.00
2013-9-12,80.7,74.0,69.6,74.0,70.7,69.0,97,89,76,29.97,29.69,10,4,19,0.19
2013-9-13,79.2,69.9,60.4,71.0,66.4,57.0,98,89,66,29.73,29.56,6,1,9,0.17
2013-9-14,69.5,61.8,52.0,58.0,55.3,51.0,96,80,61,30.05,29.74,6,1,8,0.00
2013-9-15,71.1,57.9,45.3,56.0,51.8,45.0,99,82,55,30.16,30.05,6,1,9,0.00
2013-9-16,68.0,57.4,50.0,58.0,53.4,42.0,97,87,68,30.21,30.01,3,0,7,0.03
2013-9-17,60.2,49.6,40.9,45.0,40.0,36.0,96,72,41,30.40,30.22,9,2,15,0.00
2013-9-18,73.4,54.5,36.4,52.0,44.5,36.0,99,74,36,30.32,30.14,6,1,9,0.00
2013-9-19,79.7,60.3,43.1,59.0,51.5,42.0,99,76,41,30.15,30.03,5,1,7,0.00
2013-9-20,80.2,61.3,45.5,59.0,53.2,45.0,99,78,38,30.08,29.99,7,1,8,0.00
2013-9-21,76.3,65.3,51.2,67.0,60.5,50.0,99,85,64,30.03,29.74,11,3,17,0.00
2013-9-22,72.6,66.2,52.5,68.0,59.4,48.0,96,79,55,29.81,29.62,11,2,21,0.56
2013-9-23,65.5,53.5,44.5,49.0,44.4,41.0,92,73,50,29.99,29.81,7,1,13,0.00
2013-9-24,68.8,53.3,42.6,50.0,44.1,40.0,93,73,43,29.99,29.80,9,1,9,0.00
2013-9-25,67.3,54.4,40.8,51.0,47.2,40.0,98,79,53,29.97,29.87,7,1,8,0.00
2013-9-26,65.7,56.6,49.8,51.0,49.9,47.0,94,80,58,30.10,29.96,6,1,9,0.00
2013-9-27,65.5,56.8,45.6,56.0,51.6,45.0,97,83,62,30.25,30.10,11,1,11,0.00
2013-9-28,72.5,55.4,40.3,58.0,49.8,40.0,99,83,54,30.31,30.24,8,1,9,0.00
2013-9-29,69.4,54.5,42.9,55.0,48.7,42.0,99,83,41,30.25,30.10,5,1,8,0.00
2013-9-30,69.0,56.7,44.3,57.0,51.5,43.0,98,84,56,30.10,29.96,5,1,8,0.00
2013-10-1,78.3,57.4,40.3,58.0,49.7,40.0,99,79,41,29.96,29.84,4,0,11,0.00
2013-10-2,81.0,64.6,48.0,63.0,57.2,48.0,99,80,53,29.95,29.82,8,1,15,0.00
2013-10-3,78.7,61.7,48.3,57.0,52.3,48.0,99,76,35,30.07,29.95,7,1,9,0.00
2013-10-4,65.1,55.4,46.0,59.0,53.8,45.0,98,94,70,30.08,30.02,2,0,5,0.52
2013-10-5,69.3,61.6,57.0,62.0,58.4,56.0,99,90,74,30.11,30.04,4,0,5,0.03
2013-10-6,60.8,59.3,57.4,59.0,57.4,55.0,97,94,89,30.19,30.09,5,1,8,0.04
2013-10-7,77.6,69.4,58.3,71.0,66.8,58.0,99,92,79,30.10,29.84,15,3,23,0.18
2013-10-8,67.9,57.8,45.2,58.0,48.2,44.0,96,73,43,30.34,29.90,7,1,10,0.00
2013-10-9,62.2,51.1,42.1,49.0,45.1,41.0,98,82,55,30.43,30.34,11,1,14,0.00
2013-10-10,64.0,54.7,44.5,56.0,51.6,44.0,98,89,74,30.34,30.14,10,1,12,0.00
2013-10-11,67.1,58.2,48.9,59.0,54.1,47.0,96,87,69,30.14,30.08,11,1,12,0.00
2013-10-12,63.8,56.2,49.2,58.0,53.4,48.0,98,90,79,30.35,30.12,11,2,19,0.00
2013-10-13,60.1,50.7,37.8,51.0,46.3,37.0,98,86,64,30.42,30.33,8,1,12,0.00
2013-10-14,66.1,47.2,30.8,51.0,41.7,30.0,99,84,45,30.40,30.25,3,0,6,0.00
2013-10-15,71.2,53.9,39.4,53.0,47.0,39.0,99,81,47,30.26,30.16,7,1,8,0.00
2013-10-16,63.4,54.0,41.7,58.0,52.0,41.0,99,93,83,30.16,29.90,3,0,6,0.00
2013-10-17,71.2,61.4,53.8,62.0,58.7,53.0,99,91,73,29.91,29.73,9,1,11,0.00
2013-10-18,69.1,61.3,42.8,63.0,52.6,41.0,96,76,47,29.91,29.62,9,2,17,0.01
2013-10-19,65.2,51.2,35.9,49.0,43.4,35.0,99,77,44,29.98,29.75,8,1,10,0.00
2013-10-20,63.9,53.1,36.4,54.0,42.1,33.0,98,70,33,30.02,29.69,8,1,14,0.00
2013-10-21,67.7,48.2,31.1,46.0,38.8,30.0,98,75,36,30.12,30.00,6,1,12,0.00
2013-10-22,68.3,52.2,37.0,56.0,46.4,36.0,99,82,54,30.01,29.70,12,2,14,0.00
2013-10-23,52.0,43.9,34.5,42.0,38.2,34.0,97,82,57,29.80,29.58,2,0,3,0.00
2013-10-24,54.1,44.2,33.3,37.0,31.1,24.0,92,63,34,29.89,29.63,10,1,14,0.00
2013-10-25,49.7,39.0,26.9,35.0,29.5,25.0,95,71,45,30.16,29.89,5,1,13,0.00
2013-10-26,55.4,41.9,25.3,39.0,32.1,24.0,98,72,38,30.16,29.88,15,3,23,0.00
2013-10-27,57.2,46.9,34.8,41.0,35.7,30.0,91,68,40,30.07,29.82,8,1,11,0.02
2013-10-28,60.8,43.8,27.4,37.0,32.0,26.0,97,67,39,30.33,30.07,11,1,19,0.00
2013-10-29,52.4,38.5,27.7,35.0,28.6,25.0,95,71,37,30.42,30.34,5,0,8,0.00
2013-10-30,53.8,40.9,28.1,46.0,38.4,27.0,96,91,72,30.36,30.19,3,0,3,0.01
2013-10-31,63.9,50.5,32.7,61.0,48.3,32.0,99,92,81,30.23,29.83,11,3,21,0.09
2013-11-1,69.1,64.3,60.5,65.0,60.4,55.0,95,87,75,29.81,29.50,25,7,35,0.12
2013-11-2,67.9,57.5,50.6,55.0,49.6,44.0,96,77,45,29.71,29.58,8,0,8,0.00
2013-11-3,50.6,41.9,32.1,46.0,35.5,19.0,94,79,54,30.39,29.72,5,0,10,0.00
2013-11-4,43.0,32.9,22.9,27.0,22.4,19.0,94,67,46,30.70,30.39,6,1,15,0.00
2013-11-5,53.2,35.7,22.7,34.0,27.8,21.0,96,77,37,30.70,30.52,6,0,8,0.00
2013-11-6,59.0,47.8,32.5,53.0,43.0,30.0,96,84,62,30.52,30.06,11,2,17,0.00
2013-11-7,64.6,55.3,40.6,61.0,53.3,36.0,97,92,82,30.05,29.66,12,2,16,0.52
2013-11-8,49.9,39.9,30.0,37.0,28.6,22.0,90,66,42,30.10,29.82,11,2,17,0.00
2013-11-9,44.9,36.8,28.5,32.0,26.1,23.0,85,67,43,30.21,30.05,4,1,16,0.00
2013-11-10,55.1,45.4,38.8,46.0,38.6,32.0,97,78,58,30.04,29.72,6,1,11,0.06
2013-11-11,53.2,46.1,38.8,41.0,31.3,27.0,78,57,37,30.10,29.87,11,3,16,0.00
2013-11-12,51.1,37.2,27.7,40.0,27.8,16.0,93,70,58,30.18,29.88,8,1,11,0.09
2013-11-13,38.1,29.9,25.1,18.0,15.5,12.0,71,56,38,30.27,30.18,6,1,10,0.00
2013-11-14,53.1,40.4,27.2,31.0,22.7,16.0,66,51,32,30.19,30.05,10,2,14,0.00
2013-11-15,58.9,45.1,28.9,43.0,31.1,20.0,93,61,31,30.21,30.13,11,2,14,0.00
2013-11-16,61.7,45.9,31.9,40.0,36.3,31.0,95,72,42,30.32,30.20,10,0,11,0.00
2013-11-17,61.9,48.2,31.4,60.0,46.0,30.0,99,92,70,30.31,29.85,7,1,13,0.10
2013-11-18,66.1,59.4,49.2,64.0,51.4,35.0,98,77,50,29.83,29.54,11,4,32,0.63
2013-11-19,48.6,41.0,31.3,34.0,24.2,18.0,62,52,40,30.27,29.66,7,2,15,0.00
2013-11-20,42.5,30.8,20.1,19.0,16.2,13.0,86,57,31,30.61,30.27,5,1,11,0.00
2013-11-21,48.9,32.9,18.5,32.0,23.7,17.0,93,72,40,30.63,30.39,4,0,8,0.00
2013-11-22,51.4,45.1,37.8,51.0,43.2,32.0,97,92,79,30.38,29.82,3,0,6,0.24
2013-11-23,49.1,42.2,30.2,47.0,27.9,16.0,96,60,30,29.89,29.78,13,2,16,0.00
2013-11-24,29.9,24.8,21.2,18.0,4.8,-5.0,63,44,24,30.20,29.79,13,4,29,0.00
2013-11-25,34.6,25.0,16.1,24.0,4.9,-5.0,69,44,20,30.37,30.20,7,2,14,0.00
2013-11-26,43.9,38.7,34.1,42.0,27.7,19.0,97,67,46,30.32,30.02,10,2,14,0.20
2013-11-27,62.4,53.3,37.9,62.0,52.2,34.0,98,96,86,30.00,29.20,17,4,29,2.91
2013-11-28,37.6,31.6,23.9,34.0,17.8,8.0,86,58,37,30.44,29.49,11,3,19,0.00
2013-11-29,36.9,27.8,20.4,18.0,14.1,7.0,74,58,40,30.73,30.44,5,1,9,0.00
2013-11-30,36.9,25.9,15.0,25.0,16.1,9.0,81,68,41,30.77,30.43,5,1,9,0.00
2013-12-1,47.7,40.0,30.3,44.0,37.7,25.0,98,91,80,30.43,29.99,3,0,6,0.41
2013-12-2,40.9,38.2,36.5,39.0,37.1,36.0,98,96,92,29.98,29.90,2,0,3,0.00
2013-12-3,49.5,38.3,31.3,39.0,34.5,30.0,97,87,59,29.94,29.82,6,1,7,0.00
2013-12-4,48.4,34.7,25.9,32.0,29.8,25.0,98,84,54,30.20,29.94,3,0,8,0.00
2013-12-5,55.8,44.3,29.1,55.0,42.8,28.0,98,94,85,30.20,29.92,8,1,21,0.01
2013-12-6,55.6,50.0,37.9,55.0,48.8,37.0,98,95,89,30.11,29.86,5,1,12,0.41
2013-12-7,41.2,33.9,25.5,36.0,29.7,23.0,97,85,62,30.45,30.06,6,1,11,0.20
2013-12-8,31.2,27.4,19.1,24.0,19.0,16.0,94,72,55,30.59,30.45,3,0,5,0.00
2013-12-9,40.6,35.1,28.2,40.0,33.9,20.0,98,95,66,30.47,29.87,4,1,11,0.30
2013-12-10,34.7,31.1,25.1,34.0,29.9,21.0,98,95,82,30.01,29.77,5,0,9,0.00
2013-12-11,31.0,26.2,20.9,22.0,20.0,19.0,92,78,64,30.24,30.02,10,2,14,0.00
2013-12-12,26.4,20.6,12.0,18.0,9.9,4.0,90,65,39,30.27,30.08,6,1,11,0.01
2013-12-13,31.6,22.8,10.5,17.0,12.0,7.0,86,64,46,30.36,30.01,10,2,20,0.00
2013-12-14,29.1,18.5,12.8,28.0,10.6,-3.0,96,73,48,30.58,30.11,6,2,13,0.00
2013-12-15,38.7,30.9,25.4,38.0,28.7,22.0,98,91,78,30.08,29.34,11,2,16,0.76
2013-12-16,30.2,23.8,10.7,22.0,13.2,6.0,92,66,41,30.21,29.75,9,2,16,0.00
2013-12-17,27.4,15.9,2.9,26.0,13.3,1.0,95,89,77,30.27,29.90,7,1,8,0.00
2013-12-18,36.1,26.8,18.5,23.0,20.1,16.0,91,77,52,30.10,29.82,6,1,14,0.06
2013-12-19,46.5,34.8,24.6,30.0,25.0,20.0,82,69,51,30.12,29.96,12,2,20,0.08
2013-12-20,52.8,40.6,27.8,43.0,34.9,26.0,94,81,64,30.12,29.93,10,2,16,0.00
2013-12-21,57.8,50.7,44.7,52.0,47.6,41.0,97,89,75,29.99,29.88,12,4,17,0.00
2013-12-22,61.5,54.3,40.6,60.0,52.5,40.0,96,94,81,29.99,29.78,13,4,24,0.00
2013-12-23,40.8,38.3,34.7,40.0,37.8,34.0,98,98,96,30.06,29.93,3,0,8,0.80
2013-12-24,38.9,33.6,28.0,38.0,25.1,17.0,98,72,48,30.19,30.02,6,1,10,0.00
2013-12-25,27.9,19.9,13.7,19.0,7.5,3.0,87,60,43,30.54,30.19,7,2,16,0.00
2013-12-26,38.4,28.6,15.9,37.0,25.8,12.0,96,89,79,30.50,30.06,4,0,8,0.10
2013-12-27,36.3,28.4,21.3,25.0,21.2,19.0,95,76,51,30.28,30.20,8,1,14,0.00
2013-12-28,50.0,35.6,24.9,32.0,26.4,22.0,90,71,43,30.23,30.00,9,2,18,0.00
2013-12-29,46.0,36.9,26.3,42.0,34.7,24.0,97,92,72,30.04,29.33,6,1,13,1.17
2013-12-30,40.7,33.6,21.3,38.0,26.4,13.0,97,77,51,30.14,29.48,7,1,13,0.00
2013-12-31,27.5,20.5,15.6,15.0,9.2,2.0,84,63,46,30.19,30.03,5,1,10,0.00
2014-1-1,30.1,22.4,13.6,16.0,10.5,6.0,79,61,43,30.38,30.20,6,1,15,0.00
2014-1-2,28.1,23.4,8.4,27.0,21.0,6.0,95,90,63,30.34,29.74,16,4,19,0.00